sensor_id;sensor_type;location;lat;lon;timestamp;P1;durP1;ratioP1;P2;durP2;ratioP2
24743;SDS011;12844;52.110;5.548;2023-05-16T00:02:06;2.53;;;1.38;;
24743;SDS011;12844;52.110;5.548;2023-05-16T00:04:32;2.45;;;1.30;;
24743;SDS011;12844;52.110;5.548;2023-05-16T00:06:58;4.07;;;1.80;;
24743;SDS011;12844;52.110;5.548;2023-05-16T00:09:23;5.32;;;1.67;;
24743;SDS011;12844;52.110;5.548;2023-05-16T00:11:49;4.82;;;1.77;;
24743;SDS011;12844;52.110;5.548;2023-05-16T00:14:15;4.57;;;1.88;;
24743;SDS011;12844;52.110;5.548;2023-05-16T00:16:40;2.17;;;1.40;;
24743;SDS011;12844;52.110;5.548;2023-05-16T00:19:06;3.70;;;1.70;;
24743;SDS011;12844;52.110;5.548;2023-05-16T00:21:32;2.15;;;1.65;;
24743;SDS011;12844;52.110;5.548;2023-05-16T00:23:57;3.45;;;1.70;;
24743;SDS011;12844;52.110;5.548;2023-05-16T00:26:23;2.55;;;1.58;;
24743;SDS011;12844;52.110;5.548;2023-05-16T00:28:48;4.03;;;1.60;;
24743;SDS011;12844;52.110;5.548;2023-05-16T00:31:14;2.70;;;1.50;;
24743;SDS011;12844;52.110;5.548;2023-05-16T00:33:39;2.60;;;1.30;;
24743;SDS011;12844;52.110;5.548;2023-05-16T00:36:05;2.83;;;1.58;;
24743;SDS011;12844;52.110;5.548;2023-05-16T00:38:31;2.78;;;1.60;;
24743;SDS011;12844;52.110;5.548;2023-05-16T00:40:56;2.40;;;1.50;;
24743;SDS011;12844;52.110;5.548;2023-05-16T00:43:22;2.38;;;1.63;;
24743;SDS011;12844;52.110;5.548;2023-05-16T00:45:47;2.55;;;1.33;;
24743;SDS011;12844;52.110;5.548;2023-05-16T00:48:13;3.60;;;1.63;;
24743;SDS011;12844;52.110;5.548;2023-05-16T00:50:39;1.77;;;1.27;;
24743;SDS011;12844;52.110;5.548;2023-05-16T00:53:05;4.22;;;1.55;;
24743;SDS011;12844;52.110;5.548;2023-05-16T00:55:31;2.72;;;1.30;;
24743;SDS011;12844;52.110;5.548;2023-05-16T00:57:57;3.80;;;1.45;;
24743;SDS011;12844;52.110;5.548;2023-05-16T01:00:23;2.60;;;1.48;;
24743;SDS011;12844;52.110;5.548;2023-05-16T01:02:49;3.83;;;1.42;;
24743;SDS011;12844;52.110;5.548;2023-05-16T01:05:17;2.83;;;1.40;;
24743;SDS011;12844;52.110;5.548;2023-05-16T01:07:43;2.97;;;1.20;;
24743;SDS011;12844;52.110;5.548;2023-05-16T01:10:09;2.80;;;1.50;;
24743;SDS011;12844;52.110;5.548;2023-05-16T01:12:36;2.25;;;1.40;;
24743;SDS011;12844;52.110;5.548;2023-05-16T01:15:21;4.15;;;1.52;;
24743;SDS011;12844;52.110;5.548;2023-05-16T01:26:37;3.53;;;1.48;;
24743;SDS011;12844;52.110;5.548;2023-05-16T01:29:05;2.60;;;1.33;;
24743;SDS011;12844;52.110;5.548;2023-05-16T01:31:31;3.20;;;1.80;;
24743;SDS011;12844;52.110;5.548;2023-05-16T01:33:57;3.03;;;1.40;;
24743;SDS011;12844;52.110;5.548;2023-05-16T01:47:19;2.67;;;1.10;;
24743;SDS011;12844;52.110;5.548;2023-05-16T01:52:37;3.22;;;1.30;;
24743;SDS011;12844;52.110;5.548;2023-05-16T01:55:09;3.33;;;1.50;;
24743;SDS011;12844;52.110;5.548;2023-05-16T01:57:39;3.17;;;1.20;;
24743;SDS011;12844;52.110;5.548;2023-05-16T02:00:07;3.40;;;1.30;;
24743;SDS011;12844;52.110;5.548;2023-05-16T02:02:33;2.95;;;1.40;;
24743;SDS011;12844;52.110;5.548;2023-05-16T02:04:58;3.75;;;1.48;;
24743;SDS011;12844;52.110;5.548;2023-05-16T02:07:24;2.97;;;1.17;;
24743;SDS011;12844;52.110;5.548;2023-05-16T02:09:50;2.20;;;1.15;;
24743;SDS011;12844;52.110;5.548;2023-05-16T02:12:16;2.45;;;1.30;;
24743;SDS011;12844;52.110;5.548;2023-05-16T02:14:42;2.30;;;1.15;;
24743;SDS011;12844;52.110;5.548;2023-05-16T02:17:07;2.72;;;1.05;;
24743;SDS011;12844;52.110;5.548;2023-05-16T02:19:33;2.95;;;1.10;;
24743;SDS011;12844;52.110;5.548;2023-05-16T02:21:58;2.15;;;1.13;;
24743;SDS011;12844;52.110;5.548;2023-05-16T02:24:24;2.95;;;1.15;;
24743;SDS011;12844;52.110;5.548;2023-05-16T02:26:49;3.28;;;1.30;;
24743;SDS011;12844;52.110;5.548;2023-05-16T02:29:15;1.50;;;1.08;;
24743;SDS011;12844;52.110;5.548;2023-05-16T02:31:41;2.88;;;1.20;;
24743;SDS011;12844;52.110;5.548;2023-05-16T02:34:06;2.10;;;1.20;;
24743;SDS011;12844;52.110;5.548;2023-05-16T02:36:32;3.20;;;1.00;;
24743;SDS011;12844;52.110;5.548;2023-05-16T02:38:59;3.42;;;1.30;;
24743;SDS011;12844;52.110;5.548;2023-05-16T02:41:25;4.05;;;1.10;;
24743;SDS011;12844;52.110;5.548;2023-05-16T02:43:51;1.98;;;1.20;;
24743;SDS011;12844;52.110;5.548;2023-05-16T02:48:50;2.70;;;1.08;;
24743;SDS011;12844;52.110;5.548;2023-05-16T02:51:16;2.35;;;1.00;;
24743;SDS011;12844;52.110;5.548;2023-05-16T02:53:42;3.90;;;1.27;;
24743;SDS011;12844;52.110;5.548;2023-05-16T02:56:08;2.05;;;1.02;;
24743;SDS011;12844;52.110;5.548;2023-05-16T02:58:34;3.40;;;1.13;;
24743;SDS011;12844;52.110;5.548;2023-05-16T03:03:25;2.25;;;0.90;;
24743;SDS011;12844;52.110;5.548;2023-05-16T03:05:51;1.63;;;0.90;;
24743;SDS011;12844;52.110;5.548;2023-05-16T03:08:17;2.05;;;1.15;;
24743;SDS011;12844;52.110;5.548;2023-05-16T03:10:42;3.65;;;1.30;;
24743;SDS011;12844;52.110;5.548;2023-05-16T03:13:08;2.28;;;1.10;;
24743;SDS011;12844;52.110;5.548;2023-05-16T03:15:33;2.20;;;0.98;;
24743;SDS011;12844;52.110;5.548;2023-05-16T03:17:59;2.63;;;1.10;;
24743;SDS011;12844;52.110;5.548;2023-05-16T03:20:25;2.50;;;1.10;;
24743;SDS011;12844;52.110;5.548;2023-05-16T03:22:50;3.70;;;0.98;;
24743;SDS011;12844;52.110;5.548;2023-05-16T03:25:16;7.57;;;1.05;;
24743;SDS011;12844;52.110;5.548;2023-05-16T03:27:41;2.35;;;1.20;;
24743;SDS011;12844;52.110;5.548;2023-05-16T03:30:07;3.45;;;1.15;;
24743;SDS011;12844;52.110;5.548;2023-05-16T03:32:33;2.10;;;0.82;;
24743;SDS011;12844;52.110;5.548;2023-05-16T03:34:59;3.83;;;1.00;;
24743;SDS011;12844;52.110;5.548;2023-05-16T03:37:24;2.38;;;1.00;;
24743;SDS011;12844;52.110;5.548;2023-05-16T03:39:50;4.60;;;0.90;;
24743;SDS011;12844;52.110;5.548;2023-05-16T03:42:15;2.63;;;1.10;;
24743;SDS011;12844;52.110;5.548;2023-05-16T03:44:42;3.70;;;1.13;;
24743;SDS011;12844;52.110;5.548;2023-05-16T03:47:08;1.85;;;0.80;;
24743;SDS011;12844;52.110;5.548;2023-05-16T03:49:33;1.63;;;0.90;;
24743;SDS011;12844;52.110;5.548;2023-05-16T03:52:00;1.88;;;0.93;;
24743;SDS011;12844;52.110;5.548;2023-05-16T03:54:27;3.10;;;1.00;;
24743;SDS011;12844;52.110;5.548;2023-05-16T03:56:52;1.48;;;1.02;;
24743;SDS011;12844;52.110;5.548;2023-05-16T03:59:17;2.17;;;0.90;;
24743;SDS011;12844;52.110;5.548;2023-05-16T04:01:43;2.58;;;1.00;;
24743;SDS011;12844;52.110;5.548;2023-05-16T04:04:09;2.70;;;0.95;;
24743;SDS011;12844;52.110;5.548;2023-05-16T04:06:34;1.38;;;1.00;;
24743;SDS011;12844;52.110;5.548;2023-05-16T04:09:00;2.53;;;1.00;;
24743;SDS011;12844;52.110;5.548;2023-05-16T04:11:25;2.15;;;0.98;;
24743;SDS011;12844;52.110;5.548;2023-05-16T04:13:51;1.83;;;0.95;;
24743;SDS011;12844;52.110;5.548;2023-05-16T04:16:18;2.38;;;0.80;;
24743;SDS011;12844;52.110;5.548;2023-05-16T04:18:43;2.20;;;0.93;;
24743;SDS011;12844;52.110;5.548;2023-05-16T04:21:10;1.65;;;0.80;;
24743;SDS011;12844;52.110;5.548;2023-05-16T04:23:39;3.95;;;1.02;;
24743;SDS011;12844;52.110;5.548;2023-05-16T04:26:05;2.55;;;0.90;;
24743;SDS011;12844;52.110;5.548;2023-05-16T04:28:30;2.75;;;0.80;;
24743;SDS011;12844;52.110;5.548;2023-05-16T04:30:56;2.63;;;1.30;;
24743;SDS011;12844;52.110;5.548;2023-05-16T04:33:22;2.55;;;0.90;;
24743;SDS011;12844;52.110;5.548;2023-05-16T04:35:47;2.92;;;1.17;;
24743;SDS011;12844;52.110;5.548;2023-05-16T04:38:13;1.73;;;0.90;;
24743;SDS011;12844;52.110;5.548;2023-05-16T04:40:39;2.25;;;1.00;;
24743;SDS011;12844;52.110;5.548;2023-05-16T04:43:07;2.25;;;0.90;;
24743;SDS011;12844;52.110;5.548;2023-05-16T04:45:33;1.90;;;0.95;;
24743;SDS011;12844;52.110;5.548;2023-05-16T04:47:59;1.52;;;0.63;;
24743;SDS011;12844;52.110;5.548;2023-05-16T04:50:25;3.92;;;1.05;;
24743;SDS011;12844;52.110;5.548;2023-05-16T04:52:50;1.92;;;0.80;;
24743;SDS011;12844;52.110;5.548;2023-05-16T04:55:16;2.58;;;0.90;;
24743;SDS011;12844;52.110;5.548;2023-05-16T04:57:42;2.00;;;1.00;;
24743;SDS011;12844;52.110;5.548;2023-05-16T05:00:07;1.58;;;0.80;;
24743;SDS011;12844;52.110;5.548;2023-05-16T05:02:35;1.65;;;0.80;;
24743;SDS011;12844;52.110;5.548;2023-05-16T05:05:02;2.03;;;0.68;;
24743;SDS011;12844;52.110;5.548;2023-05-16T05:07:28;2.22;;;0.80;;
24743;SDS011;12844;52.110;5.548;2023-05-16T05:09:54;2.92;;;0.85;;
24743;SDS011;12844;52.110;5.548;2023-05-16T05:12:20;1.67;;;0.80;;
24743;SDS011;12844;52.110;5.548;2023-05-16T05:14:46;1.83;;;0.88;;
24743;SDS011;12844;52.110;5.548;2023-05-16T05:17:11;3.03;;;0.95;;
24743;SDS011;12844;52.110;5.548;2023-05-16T05:19:37;3.08;;;0.85;;
24743;SDS011;12844;52.110;5.548;2023-05-16T05:22:02;1.83;;;0.80;;
24743;SDS011;12844;52.110;5.548;2023-05-16T05:24:28;2.97;;;0.90;;
24743;SDS011;12844;52.110;5.548;2023-05-16T05:26:54;2.45;;;0.90;;
24743;SDS011;12844;52.110;5.548;2023-05-16T05:29:19;1.33;;;0.68;;
24743;SDS011;12844;52.110;5.548;2023-05-16T05:31:45;1.95;;;0.80;;
24743;SDS011;12844;52.110;5.548;2023-05-16T05:34:11;2.58;;;0.88;;
24743;SDS011;12844;52.110;5.548;2023-05-16T05:36:36;2.35;;;0.70;;
24743;SDS011;12844;52.110;5.548;2023-05-16T05:39:02;1.48;;;0.82;;
24743;SDS011;12844;52.110;5.548;2023-05-16T05:41:27;2.80;;;0.80;;
24743;SDS011;12844;52.110;5.548;2023-05-16T05:43:53;2.83;;;0.80;;
24743;SDS011;12844;52.110;5.548;2023-05-16T05:46:18;1.60;;;0.80;;
24743;SDS011;12844;52.110;5.548;2023-05-16T05:48:44;2.47;;;1.00;;
24743;SDS011;12844;52.110;5.548;2023-05-16T05:51:09;2.70;;;0.88;;
24743;SDS011;12844;52.110;5.548;2023-05-16T05:53:35;1.88;;;0.98;;
24743;SDS011;12844;52.110;5.548;2023-05-16T05:56:01;1.38;;;0.63;;
24743;SDS011;12844;52.110;5.548;2023-05-16T05:58:26;1.77;;;0.60;;
24743;SDS011;12844;52.110;5.548;2023-05-16T06:00:52;1.70;;;0.70;;
24743;SDS011;12844;52.110;5.548;2023-05-16T06:03:17;1.25;;;0.70;;
24743;SDS011;12844;52.110;5.548;2023-05-16T06:05:44;2.00;;;0.80;;
24743;SDS011;12844;52.110;5.548;2023-05-16T06:08:10;3.03;;;0.93;;
24743;SDS011;12844;52.110;5.548;2023-05-16T06:10:35;1.27;;;0.80;;
24743;SDS011;12844;52.110;5.548;2023-05-16T06:13:01;2.30;;;0.90;;
24743;SDS011;12844;52.110;5.548;2023-05-16T06:15:26;2.03;;;0.80;;
24743;SDS011;12844;52.110;5.548;2023-05-16T06:17:52;3.90;;;0.73;;
24743;SDS011;12844;52.110;5.548;2023-05-16T06:20:17;1.40;;;0.70;;
24743;SDS011;12844;52.110;5.548;2023-05-16T06:22:43;1.25;;;0.60;;
24743;SDS011;12844;52.110;5.548;2023-05-16T06:25:09;2.75;;;0.85;;
24743;SDS011;12844;52.110;5.548;2023-05-16T06:27:34;1.50;;;0.70;;
24743;SDS011;12844;52.110;5.548;2023-05-16T06:30:00;1.42;;;0.80;;
24743;SDS011;12844;52.110;5.548;2023-05-16T06:32:25;1.85;;;0.68;;
24743;SDS011;12844;52.110;5.548;2023-05-16T06:34:51;1.45;;;0.70;;
24743;SDS011;12844;52.110;5.548;2023-05-16T06:37:16;1.15;;;0.70;;
24743;SDS011;12844;52.110;5.548;2023-05-16T06:39:42;2.03;;;0.80;;
24743;SDS011;12844;52.110;5.548;2023-05-16T06:42:08;1.77;;;0.80;;
24743;SDS011;12844;52.110;5.548;2023-05-16T06:44:34;1.90;;;0.90;;
24743;SDS011;12844;52.110;5.548;2023-05-16T06:47:00;2.30;;;0.75;;
24743;SDS011;12844;52.110;5.548;2023-05-16T06:49:26;2.83;;;0.80;;
24743;SDS011;12844;52.110;5.548;2023-05-16T06:51:51;1.08;;;0.60;;
24743;SDS011;12844;52.110;5.548;2023-05-16T06:54:17;1.20;;;0.70;;
24743;SDS011;12844;52.110;5.548;2023-05-16T06:56:42;1.35;;;0.50;;
24743;SDS011;12844;52.110;5.548;2023-05-16T06:59:09;1.52;;;0.60;;
24743;SDS011;12844;52.110;5.548;2023-05-16T07:01:34;1.70;;;0.77;;
24743;SDS011;12844;52.110;5.548;2023-05-16T07:03:59;2.83;;;1.02;;
24743;SDS011;12844;52.110;5.548;2023-05-16T07:06:25;1.48;;;0.70;;
24743;SDS011;12844;52.110;5.548;2023-05-16T07:08:51;1.77;;;0.60;;
24743;SDS011;12844;52.110;5.548;2023-05-16T07:11:16;2.65;;;0.70;;
24743;SDS011;12844;52.110;5.548;2023-05-16T07:13:42;3.28;;;0.80;;
24743;SDS011;12844;52.110;5.548;2023-05-16T07:16:07;2.13;;;0.75;;
24743;SDS011;12844;52.110;5.548;2023-05-16T07:18:33;1.83;;;1.00;;
24743;SDS011;12844;52.110;5.548;2023-05-16T07:20:58;1.98;;;0.75;;
24743;SDS011;12844;52.110;5.548;2023-05-16T07:23:24;3.78;;;0.68;;
24743;SDS011;12844;52.110;5.548;2023-05-16T07:25:50;2.15;;;0.70;;
24743;SDS011;12844;52.110;5.548;2023-05-16T07:28:17;1.80;;;0.77;;
24743;SDS011;12844;52.110;5.548;2023-05-16T07:30:42;1.58;;;0.70;;
24743;SDS011;12844;52.110;5.548;2023-05-16T07:33:08;2.80;;;0.90;;
24743;SDS011;12844;52.110;5.548;2023-05-16T07:35:33;2.97;;;0.65;;
24743;SDS011;12844;52.110;5.548;2023-05-16T07:37:59;2.22;;;0.70;;
24743;SDS011;12844;52.110;5.548;2023-05-16T07:40:24;3.80;;;0.80;;
24743;SDS011;12844;52.110;5.548;2023-05-16T07:42:53;2.30;;;0.93;;
24743;SDS011;12844;52.110;5.548;2023-05-16T07:45:18;2.90;;;0.80;;
24743;SDS011;12844;52.110;5.548;2023-05-16T07:47:44;4.53;;;0.70;;
24743;SDS011;12844;52.110;5.548;2023-05-16T07:50:10;2.20;;;1.00;;
24743;SDS011;12844;52.110;5.548;2023-05-16T07:52:35;2.83;;;0.90;;
24743;SDS011;12844;52.110;5.548;2023-05-16T07:55:01;3.03;;;0.77;;
24743;SDS011;12844;52.110;5.548;2023-05-16T07:57:27;1.85;;;0.80;;
24743;SDS011;12844;52.110;5.548;2023-05-16T07:59:53;3.47;;;0.80;;
24743;SDS011;12844;52.110;5.548;2023-05-16T08:02:19;1.70;;;0.88;;
24743;SDS011;12844;52.110;5.548;2023-05-16T08:04:45;2.90;;;1.02;;
24743;SDS011;12844;52.110;5.548;2023-05-16T08:07:12;2.00;;;0.73;;
24743;SDS011;12844;52.110;5.548;2023-05-16T08:09:38;2.38;;;0.80;;
24743;SDS011;12844;52.110;5.548;2023-05-16T08:12:04;1.58;;;0.70;;
24743;SDS011;12844;52.110;5.548;2023-05-16T08:14:30;2.22;;;1.00;;
24743;SDS011;12844;52.110;5.548;2023-05-16T08:16:57;2.90;;;0.93;;
24743;SDS011;12844;52.110;5.548;2023-05-16T08:19:23;2.60;;;0.80;;
24743;SDS011;12844;52.110;5.548;2023-05-16T08:21:48;2.40;;;0.77;;
24743;SDS011;12844;52.110;5.548;2023-05-16T08:24:14;3.88;;;0.80;;
24743;SDS011;12844;52.110;5.548;2023-05-16T08:26:40;1.65;;;0.70;;
24743;SDS011;12844;52.110;5.548;2023-05-16T08:29:05;2.95;;;0.70;;
24743;SDS011;12844;52.110;5.548;2023-05-16T08:31:31;1.80;;;0.70;;
24743;SDS011;12844;52.110;5.548;2023-05-16T08:33:56;3.25;;;0.80;;
24743;SDS011;12844;52.110;5.548;2023-05-16T08:36:22;4.88;;;0.73;;
24743;SDS011;12844;52.110;5.548;2023-05-16T08:38:50;4.15;;;0.98;;
24743;SDS011;12844;52.110;5.548;2023-05-16T08:41:16;2.50;;;0.70;;
24743;SDS011;12844;52.110;5.548;2023-05-16T08:43:42;4.63;;;0.90;;
24743;SDS011;12844;52.110;5.548;2023-05-16T08:46:07;3.33;;;0.80;;
24743;SDS011;12844;52.110;5.548;2023-05-16T08:48:33;2.25;;;0.70;;
24743;SDS011;12844;52.110;5.548;2023-05-16T08:51:02;3.65;;;0.73;;
24743;SDS011;12844;52.110;5.548;2023-05-16T08:53:30;1.90;;;0.80;;
24743;SDS011;12844;52.110;5.548;2023-05-16T08:56:00;3.20;;;0.57;;
24743;SDS011;12844;52.110;5.548;2023-05-16T08:58:27;2.58;;;0.65;;
24743;SDS011;12844;52.110;5.548;2023-05-16T09:00:54;2.95;;;0.70;;
24743;SDS011;12844;52.110;5.548;2023-05-16T09:03:20;3.90;;;1.10;;
24743;SDS011;12844;52.110;5.548;2023-05-16T09:05:48;3.33;;;0.60;;
24743;SDS011;12844;52.110;5.548;2023-05-16T09:08:14;3.75;;;0.73;;
24743;SDS011;12844;52.110;5.548;2023-05-16T09:10:40;1.92;;;0.70;;
24743;SDS011;12844;52.110;5.548;2023-05-16T09:13:05;4.95;;;0.82;;
24743;SDS011;12844;52.110;5.548;2023-05-16T09:15:31;3.97;;;0.80;;
24743;SDS011;12844;52.110;5.548;2023-05-16T09:18:01;3.45;;;0.60;;
24743;SDS011;12844;52.110;5.548;2023-05-16T09:20:26;3.10;;;0.90;;
24743;SDS011;12844;52.110;5.548;2023-05-16T09:25:20;3.25;;;0.77;;
24743;SDS011;12844;52.110;5.548;2023-05-16T09:27:47;3.72;;;0.90;;
24743;SDS011;12844;52.110;5.548;2023-05-16T09:30:17;4.68;;;0.80;;
24743;SDS011;12844;52.110;5.548;2023-05-16T09:32:52;2.60;;;0.80;;
24743;SDS011;12844;52.110;5.548;2023-05-16T09:35:19;2.70;;;0.80;;
24743;SDS011;12844;52.110;5.548;2023-05-16T09:37:45;4.20;;;1.00;;
24743;SDS011;12844;52.110;5.548;2023-05-16T09:40:12;1.98;;;0.90;;
24743;SDS011;12844;52.110;5.548;2023-05-16T09:42:38;1.70;;;0.70;;
24743;SDS011;12844;52.110;5.548;2023-05-16T09:45:04;2.20;;;0.93;;
24743;SDS011;12844;52.110;5.548;2023-05-16T09:47:29;3.92;;;0.90;;
24743;SDS011;12844;52.110;5.548;2023-05-16T09:49:55;2.65;;;0.88;;
24743;SDS011;12844;52.110;5.548;2023-05-16T09:52:21;2.90;;;0.82;;
24743;SDS011;12844;52.110;5.548;2023-05-16T09:54:50;3.88;;;1.13;;
24743;SDS011;12844;52.110;5.548;2023-05-16T09:57:22;1.45;;;0.57;;
24743;SDS011;12844;52.110;5.548;2023-05-16T09:59:48;1.95;;;0.90;;
24743;SDS011;12844;52.110;5.548;2023-05-16T10:02:14;2.90;;;0.70;;
24743;SDS011;12844;52.110;5.548;2023-05-16T10:04:40;3.25;;;0.70;;
24743;SDS011;12844;52.110;5.548;2023-05-16T10:07:06;2.72;;;0.88;;
24743;SDS011;12844;52.110;5.548;2023-05-16T10:09:34;2.85;;;0.60;;
24743;SDS011;12844;52.110;5.548;2023-05-16T10:12:00;3.60;;;0.88;;
24743;SDS011;12844;52.110;5.548;2023-05-16T10:14:29;2.38;;;0.82;;
24743;SDS011;12844;52.110;5.548;2023-05-16T10:16:58;2.80;;;0.70;;
24743;SDS011;12844;52.110;5.548;2023-05-16T10:19:24;3.25;;;0.70;;
24743;SDS011;12844;52.110;5.548;2023-05-16T10:21:53;4.20;;;0.90;;
24743;SDS011;12844;52.110;5.548;2023-05-16T10:24:25;3.35;;;0.93;;
24743;SDS011;12844;52.110;5.548;2023-05-16T10:26:56;4.03;;;1.00;;
24743;SDS011;12844;52.110;5.548;2023-05-16T10:29:22;2.35;;;0.93;;
24743;SDS011;12844;52.110;5.548;2023-05-16T10:31:49;1.83;;;0.90;;
24743;SDS011;12844;52.110;5.548;2023-05-16T10:34:15;4.20;;;0.77;;
24743;SDS011;12844;52.110;5.548;2023-05-16T10:36:42;1.52;;;0.80;;
24743;SDS011;12844;52.110;5.548;2023-05-16T10:39:10;2.97;;;0.70;;
24743;SDS011;12844;52.110;5.548;2023-05-16T10:41:36;2.35;;;0.82;;
24743;SDS011;12844;52.110;5.548;2023-05-16T10:44:02;1.90;;;0.50;;
24743;SDS011;12844;52.110;5.548;2023-05-16T10:46:36;2.80;;;0.77;;
24743;SDS011;12844;52.110;5.548;2023-05-16T10:49:18;3.30;;;0.82;;
24743;SDS011;12844;52.110;5.548;2023-05-16T10:52:01;3.40;;;0.70;;
24743;SDS011;12844;52.110;5.548;2023-05-16T10:54:39;2.75;;;0.70;;
24743;SDS011;12844;52.110;5.548;2023-05-16T10:57:16;2.40;;;0.50;;
24743;SDS011;12844;52.110;5.548;2023-05-16T10:59:46;1.52;;;0.70;;
24743;SDS011;12844;52.110;5.548;2023-05-16T11:02:29;3.60;;;0.90;;
24743;SDS011;12844;52.110;5.548;2023-05-16T11:05:03;2.08;;;0.73;;
24743;SDS011;12844;52.110;5.548;2023-05-16T11:07:33;2.10;;;0.80;;
24743;SDS011;12844;52.110;5.548;2023-05-16T11:10:36;2.40;;;0.77;;
24743;SDS011;12844;52.110;5.548;2023-05-16T11:12:54;3.97;;;0.77;;
24743;SDS011;12844;52.110;5.548;2023-05-16T11:15:31;1.90;;;0.60;;
24743;SDS011;12844;52.110;5.548;2023-05-16T11:18:08;1.98;;;0.80;;
24743;SDS011;12844;52.110;5.548;2023-05-16T11:20:38;2.58;;;0.82;;
24743;SDS011;12844;52.110;5.548;2023-05-16T11:23:21;3.70;;;0.95;;
24743;SDS011;12844;52.110;5.548;2023-05-16T11:25:50;2.60;;;0.60;;
24743;SDS011;12844;52.110;5.548;2023-05-16T11:28:17;2.95;;;0.80;;
24743;SDS011;12844;52.110;5.548;2023-05-16T11:30:48;1.48;;;0.70;;
24743;SDS011;12844;52.110;5.548;2023-05-16T11:35:42;1.88;;;0.60;;
24743;SDS011;12844;52.110;5.548;2023-05-16T11:38:12;1.38;;;0.63;;
24743;SDS011;12844;52.110;5.548;2023-05-16T11:40:43;1.65;;;0.73;;
24743;SDS011;12844;52.110;5.548;2023-05-16T11:43:09;1.48;;;0.60;;
24743;SDS011;12844;52.110;5.548;2023-05-16T11:45:36;2.60;;;0.80;;
24743;SDS011;12844;52.110;5.548;2023-05-16T11:48:01;1.75;;;0.60;;
24743;SDS011;12844;52.110;5.548;2023-05-16T11:50:32;1.20;;;0.60;;
24743;SDS011;12844;52.110;5.548;2023-05-16T11:52:59;1.25;;;0.68;;
24743;SDS011;12844;52.110;5.548;2023-05-16T11:55:25;2.03;;;0.70;;
24743;SDS011;12844;52.110;5.548;2023-05-16T11:57:54;2.03;;;0.70;;
24743;SDS011;12844;52.110;5.548;2023-05-16T12:00:22;1.50;;;0.70;;
24743;SDS011;12844;52.110;5.548;2023-05-16T12:02:49;1.55;;;0.63;;
24743;SDS011;12844;52.110;5.548;2023-05-16T12:05:16;3.28;;;0.93;;
24743;SDS011;12844;52.110;5.548;2023-05-16T12:07:43;2.42;;;0.63;;
24743;SDS011;12844;52.110;5.548;2023-05-16T12:10:10;2.38;;;0.80;;
24743;SDS011;12844;52.110;5.548;2023-05-16T12:12:37;3.97;;;0.80;;
24743;SDS011;12844;52.110;5.548;2023-05-16T12:15:06;1.40;;;0.70;;
24743;SDS011;12844;52.110;5.548;2023-05-16T12:17:33;3.03;;;0.52;;
24743;SDS011;12844;52.110;5.548;2023-05-16T12:19:59;1.73;;;0.82;;
24743;SDS011;12844;52.110;5.548;2023-05-16T12:22:26;1.85;;;0.55;;
24743;SDS011;12844;52.110;5.548;2023-05-16T12:24:51;2.13;;;0.80;;
24743;SDS011;12844;52.110;5.548;2023-05-16T12:27:20;1.73;;;0.60;;
24743;SDS011;12844;52.110;5.548;2023-05-16T12:29:47;1.83;;;0.65;;
24743;SDS011;12844;52.110;5.548;2023-05-16T12:32:16;2.17;;;0.80;;
24743;SDS011;12844;52.110;5.548;2023-05-16T12:34:48;2.20;;;0.95;;
24743;SDS011;12844;52.110;5.548;2023-05-16T12:37:15;1.80;;;0.68;;
24743;SDS011;12844;52.110;5.548;2023-05-16T12:39:41;4.40;;;0.80;;
24743;SDS011;12844;52.110;5.548;2023-05-16T12:42:06;3.58;;;0.75;;
24743;SDS011;12844;52.110;5.548;2023-05-16T12:44:33;1.20;;;0.80;;
24743;SDS011;12844;52.110;5.548;2023-05-16T12:47:00;4.10;;;0.60;;
24743;SDS011;12844;52.110;5.548;2023-05-16T12:49:26;3.00;;;0.75;;
24743;SDS011;12844;52.110;5.548;2023-05-16T12:51:52;2.45;;;0.75;;
24743;SDS011;12844;52.110;5.548;2023-05-16T12:54:20;3.22;;;0.82;;
24743;SDS011;12844;52.110;5.548;2023-05-16T12:56:46;4.65;;;0.70;;
24743;SDS011;12844;52.110;5.548;2023-05-16T12:59:12;4.03;;;0.60;;
24743;SDS011;12844;52.110;5.548;2023-05-16T13:01:38;3.58;;;0.88;;
24743;SDS011;12844;52.110;5.548;2023-05-16T13:04:05;3.75;;;0.95;;
24743;SDS011;12844;52.110;5.548;2023-05-16T13:06:31;3.90;;;0.70;;
24743;SDS011;12844;52.110;5.548;2023-05-16T13:08:56;2.85;;;0.70;;
24743;SDS011;12844;52.110;5.548;2023-05-16T13:11:22;3.03;;;0.63;;
24743;SDS011;12844;52.110;5.548;2023-05-16T13:13:48;3.20;;;0.95;;
24743;SDS011;12844;52.110;5.548;2023-05-16T13:16:14;3.30;;;0.60;;
24743;SDS011;12844;52.110;5.548;2023-05-16T13:18:40;1.83;;;0.70;;
24743;SDS011;12844;52.110;5.548;2023-05-16T13:21:06;1.73;;;0.52;;
24743;SDS011;12844;52.110;5.548;2023-05-16T13:23:31;3.90;;;0.75;;
24743;SDS011;12844;52.110;5.548;2023-05-16T13:25:57;8.75;;;1.00;;
24743;SDS011;12844;52.110;5.548;2023-05-16T13:28:23;2.20;;;0.70;;
24743;SDS011;12844;52.110;5.548;2023-05-16T13:30:49;5.15;;;0.70;;
24743;SDS011;12844;52.110;5.548;2023-05-16T13:33:15;4.10;;;0.70;;
24743;SDS011;12844;52.110;5.548;2023-05-16T13:35:42;3.15;;;0.88;;
24743;SDS011;12844;52.110;5.548;2023-05-16T13:38:08;4.22;;;0.77;;
24743;SDS011;12844;52.110;5.548;2023-05-16T13:40:33;2.78;;;0.70;;
24743;SDS011;12844;52.110;5.548;2023-05-16T13:43:00;2.67;;;0.70;;
24743;SDS011;12844;52.110;5.548;2023-05-16T13:45:26;2.92;;;0.88;;
24743;SDS011;12844;52.110;5.548;2023-05-16T13:47:51;2.15;;;0.60;;
24743;SDS011;12844;52.110;5.548;2023-05-16T13:50:17;1.98;;;0.70;;
24743;SDS011;12844;52.110;5.548;2023-05-16T13:52:42;2.72;;;0.80;;
24743;SDS011;12844;52.110;5.548;2023-05-16T13:55:08;5.40;;;0.68;;
24743;SDS011;12844;52.110;5.548;2023-05-16T13:57:34;2.83;;;0.82;;
24743;SDS011;12844;52.110;5.548;2023-05-16T14:00:00;5.38;;;0.90;;
24743;SDS011;12844;52.110;5.548;2023-05-16T14:02:26;5.25;;;1.00;;
24743;SDS011;12844;52.110;5.548;2023-05-16T14:04:51;2.10;;;0.60;;
24743;SDS011;12844;52.110;5.548;2023-05-16T14:07:17;3.33;;;0.70;;
24743;SDS011;12844;52.110;5.548;2023-05-16T14:09:43;2.78;;;0.70;;
24743;SDS011;12844;52.110;5.548;2023-05-16T14:12:09;2.10;;;0.65;;
24743;SDS011;12844;52.110;5.548;2023-05-16T14:14:35;2.53;;;0.70;;
24743;SDS011;12844;52.110;5.548;2023-05-16T14:17:01;2.97;;;0.55;;
24743;SDS011;12844;52.110;5.548;2023-05-16T14:19:28;4.03;;;0.73;;
24743;SDS011;12844;52.110;5.548;2023-05-16T14:21:54;2.55;;;0.65;;
24743;SDS011;12844;52.110;5.548;2023-05-16T14:24:20;3.35;;;0.93;;
24743;SDS011;12844;52.110;5.548;2023-05-16T14:26:45;2.00;;;0.70;;
24743;SDS011;12844;52.110;5.548;2023-05-16T14:29:11;3.47;;;0.90;;
24743;SDS011;12844;52.110;5.548;2023-05-16T14:31:37;4.78;;;0.90;;
24743;SDS011;12844;52.110;5.548;2023-05-16T14:34:03;5.20;;;1.35;;
24743;SDS011;12844;52.110;5.548;2023-05-16T14:36:29;4.78;;;0.65;;
24743;SDS011;12844;52.110;5.548;2023-05-16T14:38:55;5.10;;;1.00;;
24743;SDS011;12844;52.110;5.548;2023-05-16T14:41:21;4.57;;;0.70;;
24743;SDS011;12844;52.110;5.548;2023-05-16T14:43:47;2.97;;;0.68;;
24743;SDS011;12844;52.110;5.548;2023-05-16T14:46:12;1.63;;;0.70;;
24743;SDS011;12844;52.110;5.548;2023-05-16T14:48:38;1.73;;;0.80;;
24743;SDS011;12844;52.110;5.548;2023-05-16T14:51:04;2.45;;;0.70;;
24743;SDS011;12844;52.110;5.548;2023-05-16T14:53:30;5.60;;;0.93;;
24743;SDS011;12844;52.110;5.548;2023-05-16T14:55:56;1.55;;;0.70;;
24743;SDS011;12844;52.110;5.548;2023-05-16T14:58:22;7.60;;;0.90;;
24743;SDS011;12844;52.110;5.548;2023-05-16T15:00:48;2.35;;;0.70;;
24743;SDS011;12844;52.110;5.548;2023-05-16T15:03:15;5.45;;;0.80;;
24743;SDS011;12844;52.110;5.548;2023-05-16T15:05:41;3.83;;;0.90;;
24743;SDS011;12844;52.110;5.548;2023-05-16T15:08:07;4.85;;;0.77;;
24743;SDS011;12844;52.110;5.548;2023-05-16T15:10:33;3.78;;;0.70;;
24743;SDS011;12844;52.110;5.548;2023-05-16T15:12:58;3.28;;;0.98;;
24743;SDS011;12844;52.110;5.548;2023-05-16T15:15:24;4.72;;;0.88;;
24743;SDS011;12844;52.110;5.548;2023-05-16T15:17:49;4.78;;;1.20;;